createdAt,value
2018-07-02T00:00:30.945Z,934.90
2018-07-02T00:01:31.116Z,934.91
2018-07-02T00:02:30.965Z,934.90
2018-07-02T00:03:31.003Z,934.87
2018-07-02T00:04:31.021Z,934.91
2018-07-02T00:05:31.007Z,934.86
2018-07-02T00:06:31.155Z,934.87
2018-07-02T00:07:31.060Z,934.86
2018-07-02T00:08:31.054Z,934.86
2018-07-02T00:09:31.083Z,934.84
2018-07-02T00:10:31.102Z,934.80
2018-07-02T00:11:31.221Z,934.82
2018-07-02T00:12:31.105Z,934.79
2018-07-02T00:13:31.179Z,934.79
2018-07-02T00:14:31.202Z,934.83
2018-07-02T00:15:31.181Z,934.76
2018-07-02T00:16:31.390Z,934.75
2018-07-02T00:17:31.183Z,934.79
2018-07-02T00:18:31.222Z,934.81
2018-07-02T00:19:31.237Z,934.80
2018-07-02T00:20:31.281Z,934.83
2018-07-02T00:21:31.394Z,934.88
2018-07-02T00:22:31.261Z,934.85
2018-07-02T00:23:31.285Z,934.86
2018-07-02T00:24:31.337Z,934.84
2018-07-02T00:25:31.340Z,934.89
2018-07-02T00:26:31.447Z,934.89
2018-07-02T00:27:31.324Z,934.87
2018-07-02T00:28:31.362Z,934.89
2018-07-02T00:29:31.379Z,934.88
2018-07-02T00:30:31.392Z,934.89
2018-07-02T00:31:31.540Z,934.88
2018-07-02T00:32:31.453Z,934.90
2018-07-02T00:33:31.445Z,934.89
2018-07-02T00:34:31.450Z,934.91
2018-07-02T00:35:31.450Z,934.90
2018-07-02T00:36:31.588Z,934.93
2018-07-02T00:37:31.517Z,934.93
2018-07-02T00:38:31.513Z,934.91
2018-07-02T00:39:31.570Z,934.92
2018-07-02T00:40:31.516Z,934.90
2018-07-02T00:41:31.747Z,934.90
2018-07-02T00:42:31.623Z,934.96
2018-07-02T00:43:31.574Z,934.94
2018-07-02T00:44:31.593Z,934.94
2018-07-02T00:45:31.590Z,934.92
2018-07-02T00:46:31.803Z,934.94
2018-07-02T00:47:31.606Z,934.92
2018-07-02T00:48:31.621Z,934.90
2018-07-02T00:49:31.742Z,934.94
2018-07-02T00:50:31.650Z,934.94
2018-07-02T00:51:31.763Z,934.96
2018-07-02T00:52:31.743Z,934.99
2018-07-02T00:53:31.719Z,934.98
2018-07-02T00:54:31.733Z,935.01
2018-07-02T00:55:31.758Z,934.96
2018-07-02T00:56:31.916Z,935.01
2018-07-02T00:57:31.794Z,935.01
2018-07-02T00:58:31.766Z,935.02
2018-07-02T00:59:31.805Z,935.06
2018-07-02T01:00:31.790Z,935.09
2018-07-02T01:01:31.854Z,935.08
2018-07-02T01:02:31.995Z,935.11
2018-07-02T01:03:31.850Z,935.11
2018-07-02T01:04:31.891Z,935.12
2018-07-02T01:05:31.865Z,935.02
2018-07-02T01:06:31.879Z,935.03
2018-07-02T01:07:32.080Z,935.05
2018-07-02T01:08:31.904Z,935.04
2018-07-02T01:09:32.058Z,935.03
2018-07-02T01:10:32.048Z,935.05
2018-07-02T01:11:31.972Z,935.01
2018-07-02T01:12:32.166Z,935.02
2018-07-02T01:13:31.980Z,935.00
2018-07-02T01:14:32.004Z,934.97
2018-07-02T01:15:32.043Z,935.01
2018-07-02T01:16:32.018Z,934.97
2018-07-02T01:17:32.123Z,935.04
2018-07-02T01:18:32.071Z,935.03
2018-07-02T01:19:32.091Z,935.02
2018-07-02T01:20:32.140Z,935.05
2018-07-02T01:21:32.085Z,935.04
2018-07-02T01:22:32.262Z,934.99
2018-07-02T01:23:32.127Z,935.00
2018-07-02T01:24:32.153Z,935.00
2018-07-02T01:25:32.202Z,935.00
2018-07-02T01:26:32.181Z,935.05
2018-07-02T01:27:32.333Z,935.07
2018-07-02T01:28:32.216Z,935.07
2018-07-02T01:29:32.196Z,935.11
2018-07-02T01:30:32.212Z,935.12
2018-07-02T01:31:32.271Z,935.08
2018-07-02T01:32:32.393Z,935.07
2018-07-02T01:33:32.248Z,935.07
2018-07-02T01:34:32.261Z,935.06
2018-07-02T01:35:32.418Z,935.05
2018-07-02T01:36:32.374Z,935.10
2018-07-02T01:37:32.404Z,935.13
2018-07-02T01:38:32.329Z,935.15
2018-07-02T01:39:32.359Z,935.15
2018-07-02T01:40:32.361Z,935.19
2018-07-02T01:41:32.358Z,935.23
2018-07-02T01:42:32.540Z,935.22
2018-07-02T01:43:32.400Z,935.20
2018-07-02T01:44:32.407Z,935.20
2018-07-02T01:45:32.462Z,935.21
2018-07-02T01:46:32.426Z,935.24
2018-07-02T01:47:32.546Z,935.22
2018-07-02T01:48:32.457Z,935.27
2018-07-02T01:49:32.487Z,935.28
2018-07-02T01:50:32.486Z,935.34
2018-07-02T01:51:32.543Z,935.31
2018-07-02T01:52:32.668Z,935.35
2018-07-02T01:53:32.541Z,935.37
2018-07-02T01:54:32.571Z,935.36
2018-07-02T01:55:32.606Z,935.34
2018-07-02T01:56:32.565Z,935.30
2018-07-02T01:57:32.781Z,935.33
2018-07-02T01:58:32.598Z,935.32
2018-07-02T01:59:32.615Z,935.36
2018-07-02T02:00:32.645Z,935.37
2018-07-02T02:01:32.635Z,935.35
2018-07-02T02:02:32.754Z,935.29
2018-07-02T02:03:32.662Z,935.29
2018-07-02T02:04:32.674Z,935.24
2018-07-02T02:05:32.700Z,935.26
2018-07-02T02:06:32.730Z,935.25
2018-07-02T02:07:32.895Z,935.23
2018-07-02T02:08:32.741Z,935.25
2018-07-02T02:09:32.742Z,935.23
2018-07-02T02:10:32.765Z,935.21
2018-07-02T02:11:32.821Z,935.23
2018-07-02T02:12:32.785Z,935.25
2018-07-02T02:13:32.953Z,935.27
2018-07-02T02:14:32.875Z,935.26
2018-07-02T02:15:32.820Z,935.26
2018-07-02T02:16:32.835Z,935.30
2018-07-02T02:17:32.877Z,935.29
2018-07-02T02:18:32.976Z,935.26
2018-07-02T02:19:32.880Z,935.33
2018-07-02T02:20:32.904Z,935.31
2018-07-02T02:21:32.916Z,935.33
2018-07-02T02:22:32.921Z,935.34
2018-07-02T02:23:33.107Z,935.37
2018-07-02T02:24:32.956Z,935.39
2018-07-02T02:25:32.971Z,935.37
2018-07-02T02:26:32.975Z,935.38
2018-07-02T02:27:33.016Z,935.38
2018-07-02T02:28:33.104Z,935.32
2018-07-02T02:29:33.032Z,935.34
2018-07-02T02:30:33.065Z,935.33
2018-07-02T02:31:33.066Z,935.32
2018-07-02T02:32:33.087Z,935.28
2018-07-02T02:33:33.184Z,935.29
2018-07-02T02:34:33.196Z,935.29
2018-07-02T02:35:33.125Z,935.28
2018-07-02T02:36:33.105Z,935.28
2018-07-02T02:37:33.158Z,935.29
2018-07-02T02:38:33.235Z,935.30
2018-07-02T02:39:33.207Z,935.30
2018-07-02T02:40:33.163Z,935.35
2018-07-02T02:41:33.174Z,935.36
2018-07-02T02:42:33.223Z,935.37
2018-07-02T02:43:33.305Z,935.40
2018-07-02T02:44:33.316Z,935.39
2018-07-02T02:45:33.229Z,935.39
2018-07-02T02:46:33.244Z,935.41
2018-07-02T02:47:33.262Z,935.38
2018-07-02T02:48:33.394Z,935.37
2018-07-02T02:49:33.288Z,935.38
2018-07-02T02:50:33.294Z,935.38
2018-07-02T02:51:33.321Z,935.39
2018-07-02T02:52:33.324Z,935.38
2018-07-02T02:53:33.489Z,935.36
2018-07-02T02:54:33.356Z,935.35
2018-07-02T02:55:33.374Z,935.33
2018-07-02T02:56:33.404Z,935.31
2018-07-02T02:57:33.392Z,935.33
2018-07-02T02:58:33.501Z,935.31
2018-07-02T02:59:33.414Z,935.32
2018-07-02T03:00:33.509Z,935.27
2018-07-02T03:01:33.444Z,935.29
2018-07-02T03:02:33.482Z,935.27
2018-07-02T03:03:33.566Z,935.29
2018-07-02T03:04:33.531Z,935.33
2018-07-02T03:05:33.493Z,935.33
2018-07-02T03:06:33.510Z,935.32
2018-07-02T03:07:33.519Z,935.26
2018-07-02T03:08:33.639Z,935.25
2018-07-02T03:09:33.582Z,935.29
2018-07-02T03:10:33.557Z,935.28
2018-07-02T03:11:33.576Z,935.31
2018-07-02T03:12:33.605Z,935.31
2018-07-02T03:13:33.790Z,935.36
2018-07-02T03:14:33.612Z,935.38
2018-07-02T03:15:33.639Z,935.36
2018-07-02T03:16:33.659Z,935.32
2018-07-02T03:17:33.664Z,935.29
2018-07-02T03:18:33.827Z,935.30
2018-07-02T03:19:33.708Z,935.31
2018-07-02T03:20:33.699Z,935.32
2018-07-02T03:21:33.731Z,935.29
2018-07-02T03:22:33.719Z,935.30
2018-07-02T03:23:33.731Z,935.27
2018-07-02T03:24:33.952Z,935.25
2018-07-02T03:25:33.761Z,935.26
2018-07-02T03:26:33.775Z,935.22
2018-07-02T03:27:33.788Z,935.28
2018-07-02T03:28:33.830Z,935.24
2018-07-02T03:29:33.961Z,935.22
2018-07-02T03:30:33.825Z,935.23
2018-07-02T03:31:33.864Z,935.24
2018-07-02T03:32:33.866Z,935.20
2018-07-02T03:33:33.892Z,935.19
2018-07-02T03:34:33.985Z,935.19
2018-07-02T03:35:33.902Z,935.16
2018-07-02T03:36:33.931Z,935.14
2018-07-02T03:37:33.926Z,935.18
2018-07-02T03:38:33.929Z,935.20
2018-07-02T03:39:34.052Z,935.26
2018-07-02T03:40:33.954Z,935.27
2018-07-02T03:41:33.999Z,935.26
2018-07-02T03:42:33.987Z,935.27
2018-07-02T03:43:34.000Z,935.27
2018-07-02T03:44:34.131Z,935.28
2018-07-02T03:45:34.043Z,935.27
2018-07-02T03:46:34.030Z,935.28
2018-07-02T03:47:34.071Z,935.28
2018-07-02T03:48:34.062Z,935.27
2018-07-02T03:49:34.222Z,935.22
2018-07-02T03:50:34.080Z,935.22
2018-07-02T03:51:34.097Z,935.20
2018-07-02T03:52:34.129Z,935.21
2018-07-02T03:53:34.123Z,935.24
2018-07-02T03:54:34.309Z,935.25
2018-07-02T03:55:34.144Z,935.24
2018-07-02T03:56:34.158Z,935.31
2018-07-02T03:57:34.172Z,935.28
2018-07-02T03:58:34.193Z,935.31
2018-07-02T03:59:34.350Z,935.30
2018-07-02T04:00:34.235Z,935.29
2018-07-02T04:01:34.224Z,935.26
2018-07-02T04:02:34.239Z,935.25
2018-07-02T04:03:34.275Z,935.24
2018-07-02T04:04:34.411Z,935.23
2018-07-02T04:05:34.305Z,935.24
2018-07-02T04:06:34.282Z,935.27
2018-07-02T04:07:34.338Z,935.23
2018-07-02T04:08:34.324Z,935.23
2018-07-02T04:09:34.491Z,935.19
2018-07-02T04:10:34.333Z,935.15
2018-07-02T04:11:34.350Z,935.15
2018-07-02T04:12:34.388Z,935.14
2018-07-02T04:13:34.375Z,935.16
2018-07-02T04:14:34.504Z,935.14
2018-07-02T04:15:34.432Z,935.14
2018-07-02T04:16:34.417Z,935.14
2018-07-02T04:17:34.460Z,935.11
2018-07-02T04:18:34.456Z,935.10
2018-07-02T04:19:34.604Z,935.07
2018-07-02T04:20:34.493Z,935.04
2018-07-02T04:21:34.483Z,935.04
2018-07-02T04:22:34.517Z,935.00
2018-07-02T04:23:34.572Z,935.00
2018-07-02T04:24:34.650Z,935.00
2018-07-02T04:25:34.546Z,934.98
2018-07-02T04:26:34.554Z,935.02
2018-07-02T04:27:34.566Z,935.02
2018-07-02T04:28:34.563Z,935.05
2018-07-02T04:29:34.727Z,935.01
2018-07-02T04:30:34.595Z,935.00
2018-07-02T04:31:34.620Z,935.01
2018-07-02T04:32:34.686Z,935.00
2018-07-02T04:33:34.644Z,935.05
2018-07-02T04:34:34.826Z,935.00
2018-07-02T04:35:34.685Z,935.00
2018-07-02T04:36:34.702Z,935.02
2018-07-02T04:37:34.682Z,935.01
2018-07-02T04:38:34.711Z,935.01
2018-07-02T04:39:34.709Z,935.03
2018-07-02T04:40:34.818Z,935.04
2018-07-02T04:41:34.737Z,935.00
2018-07-02T04:42:34.771Z,934.96
2018-07-02T04:43:34.772Z,934.98
2018-07-02T04:44:34.773Z,934.93
2018-07-02T04:45:34.936Z,934.92
2018-07-02T04:46:34.820Z,934.89
2018-07-02T04:47:34.825Z,934.87
2018-07-02T04:48:35.019Z,934.88
2018-07-02T04:49:34.839Z,934.88
2018-07-02T04:50:34.946Z,934.87
2018-07-02T04:51:34.886Z,934.88
2018-07-02T04:52:34.871Z,934.86
2018-07-02T04:53:34.897Z,934.87
2018-07-02T04:54:34.896Z,934.86
2018-07-02T04:55:35.088Z,934.84
2018-07-02T04:56:34.924Z,934.83
2018-07-02T04:57:34.968Z,934.85
2018-07-02T04:58:34.951Z,934.82
2018-07-02T04:59:35.042Z,934.78
2018-07-02T05:00:35.152Z,934.78
2018-07-02T05:01:34.984Z,934.78
2018-07-02T05:02:35.010Z,934.77
2018-07-02T05:03:35.023Z,934.74
2018-07-02T05:04:35.036Z,934.68
2018-07-02T05:05:35.139Z,934.66
2018-07-02T05:06:35.052Z,934.65
2018-07-02T05:07:35.109Z,934.61
2018-07-02T05:08:35.100Z,934.62
2018-07-02T05:09:35.097Z,934.59
2018-07-02T05:10:35.200Z,934.62
2018-07-02T05:11:35.115Z,934.60
2018-07-02T05:12:35.124Z,934.59
2018-07-02T05:13:35.167Z,934.60
2018-07-02T05:14:35.153Z,934.58
2018-07-02T05:15:35.263Z,934.57
2018-07-02T05:16:35.174Z,934.56
2018-07-02T05:17:35.213Z,934.55
2018-07-02T05:18:35.200Z,934.53
2018-07-02T05:19:35.212Z,934.54
2018-07-02T05:20:35.354Z,934.54
2018-07-02T05:21:35.271Z,934.49
2018-07-02T05:22:35.247Z,934.51
2018-07-02T05:23:35.264Z,934.45
2018-07-02T05:24:35.283Z,934.45
2018-07-02T05:25:35.462Z,934.37
2018-07-02T05:26:35.326Z,934.37
2018-07-02T05:27:35.311Z,934.31
2018-07-02T05:28:35.324Z,934.31
2018-07-02T05:29:35.340Z,934.30
2018-07-02T05:30:35.475Z,934.27
2018-07-02T05:31:35.364Z,934.27
2018-07-02T05:32:35.371Z,934.28
2018-07-02T05:33:35.412Z,934.30
2018-07-02T05:34:35.407Z,934.29
2018-07-02T05:35:35.566Z,934.28
2018-07-02T05:36:35.449Z,934.28
2018-07-02T05:37:35.441Z,934.29
2018-07-02T05:38:35.444Z,934.33
2018-07-02T05:39:35.486Z,934.34
2018-07-02T05:40:35.574Z,934.36
2018-07-02T05:41:35.485Z,934.33
2018-07-02T05:42:35.506Z,934.31
2018-07-02T05:43:35.510Z,934.32
2018-07-02T05:44:35.549Z,934.33
2018-07-02T05:45:35.687Z,934.35
2018-07-02T05:46:35.546Z,934.38
2018-07-02T05:47:35.560Z,934.38
2018-07-02T05:48:35.630Z,934.40
2018-07-02T05:49:35.587Z,934.38
2018-07-02T05:50:35.728Z,934.39
2018-07-02T05:51:35.646Z,934.37
2018-07-02T05:52:35.649Z,934.41
2018-07-02T05:53:35.644Z,934.38
2018-07-02T05:54:35.660Z,934.37
2018-07-02T05:55:35.839Z,934.33
2018-07-02T05:56:35.697Z,934.33
2018-07-02T05:57:35.711Z,934.34
2018-07-02T05:58:35.725Z,934.37
2018-07-02T05:59:35.710Z,934.34
2018-07-02T06:00:35.811Z,934.36
2018-07-02T06:01:35.913Z,934.29
2018-07-02T06:02:35.746Z,934.25
2018-07-02T06:03:35.763Z,934.24
2018-07-02T06:04:35.766Z,934.19
2018-07-02T06:05:35.814Z,934.19
2018-07-02T06:06:35.976Z,934.18
2018-07-02T06:07:35.838Z,934.20
2018-07-02T06:08:35.846Z,934.24
2018-07-02T06:09:35.835Z,934.27
2018-07-02T06:10:35.876Z,934.22
2018-07-02T06:11:35.959Z,934.24
2018-07-02T06:12:35.873Z,934.27
2018-07-02T06:13:35.917Z,934.27
2018-07-02T06:14:35.902Z,934.26
2018-07-02T06:15:35.913Z,934.24
2018-07-02T06:16:36.202Z,934.21
2018-07-02T06:17:35.958Z,934.19
2018-07-02T06:18:35.971Z,934.20
2018-07-02T06:19:35.983Z,934.17
2018-07-02T06:20:35.994Z,934.17
2018-07-02T06:21:36.110Z,934.18
2018-07-02T06:22:36.001Z,934.20
2018-07-02T06:23:36.019Z,934.22
2018-07-02T06:24:36.033Z,934.26
2018-07-02T06:25:36.031Z,934.24
2018-07-02T06:26:36.145Z,934.22
2018-07-02T06:27:36.057Z,934.23
2018-07-02T06:28:36.100Z,934.23
2018-07-02T06:29:36.105Z,934.20
2018-07-02T06:30:36.169Z,934.18
2018-07-02T06:31:36.276Z,934.19
2018-07-02T06:32:36.140Z,934.18
2018-07-02T06:33:36.161Z,934.19
2018-07-02T06:34:36.167Z,934.19
2018-07-02T06:35:36.169Z,934.15
2018-07-02T06:36:36.264Z,934.17
2018-07-02T06:37:36.180Z,934.12
2018-07-02T06:38:36.193Z,934.11
2018-07-02T06:39:36.199Z,934.12
2018-07-02T06:40:36.243Z,934.12
2018-07-02T06:41:36.372Z,934.12
2018-07-02T06:42:36.239Z,934.05
2018-07-02T06:43:36.250Z,934.10
2018-07-02T06:44:36.268Z,934.07
2018-07-02T06:45:36.277Z,934.04
2018-07-02T06:46:36.432Z,934.07
2018-07-02T06:47:36.312Z,934.04
2018-07-02T06:48:36.461Z,934.04
2018-07-02T06:49:36.320Z,934.05
2018-07-02T06:50:36.335Z,934.08
2018-07-02T06:51:36.498Z,934.02
2018-07-02T06:52:36.351Z,934.04
2018-07-02T06:53:36.397Z,934.05
2018-07-02T06:54:36.376Z,934.05
2018-07-02T06:55:36.392Z,934.08
2018-07-02T06:56:36.556Z,934.10
2018-07-02T06:57:36.443Z,934.03
2018-07-02T06:58:36.462Z,934.04
2018-07-02T06:59:36.464Z,934.00
2018-07-02T07:00:36.451Z,934.00
2018-07-02T07:01:36.618Z,933.99
2018-07-02T07:02:36.474Z,934.04
2018-07-02T07:03:36.488Z,934.03
2018-07-02T07:04:36.499Z,934.01
2018-07-02T07:05:36.541Z,933.99
2018-07-02T07:06:36.663Z,934.01
2018-07-02T07:07:36.559Z,933.95
2018-07-02T07:08:36.590Z,933.95
2018-07-02T07:09:36.587Z,933.92
2018-07-02T07:10:36.596Z,933.98
2018-07-02T07:11:36.687Z,933.96
2018-07-02T07:12:36.594Z,933.98
2018-07-02T07:13:36.609Z,933.99
2018-07-02T07:14:36.617Z,933.99
2018-07-02T07:15:36.682Z,933.99
2018-07-02T07:16:36.789Z,933.97
2018-07-02T07:17:36.660Z,933.94
2018-07-02T07:18:36.666Z,934.00
2018-07-02T07:19:36.680Z,933.94
2018-07-02T07:20:36.695Z,933.99
2018-07-02T07:21:36.706Z,934.01
2018-07-02T07:22:36.864Z,934.02
2018-07-02T07:23:36.752Z,934.08
2018-07-02T07:24:36.742Z,934.06
2018-07-02T07:25:36.753Z,934.06
2018-07-02T07:26:36.774Z,934.04
2018-07-02T07:27:36.973Z,934.06
2018-07-02T07:28:36.790Z,934.04
2018-07-02T07:29:36.816Z,934.00
2018-07-02T07:30:36.814Z,934.00
2018-07-02T07:31:36.851Z,933.99
2018-07-02T07:32:36.963Z,934.02
2018-07-02T07:33:36.856Z,934.03
2018-07-02T07:34:36.865Z,933.99
2018-07-02T07:35:36.874Z,933.99
2018-07-02T07:36:36.887Z,933.98
2018-07-02T07:37:37.050Z,934.03
2018-07-02T07:38:36.933Z,934.05
2018-07-02T07:39:36.924Z,934.07
2018-07-02T07:40:36.934Z,934.02
2018-07-02T07:41:36.973Z,934.01
2018-07-02T07:42:37.107Z,933.95
2018-07-02T07:43:36.978Z,933.94
2018-07-02T07:44:37.009Z,933.94
2018-07-02T07:45:36.992Z,933.95
2018-07-02T07:46:37.002Z,933.93
2018-07-02T07:47:37.118Z,933.90
2018-07-02T07:48:37.031Z,933.92
2018-07-02T07:49:37.045Z,933.94
2018-07-02T07:50:37.056Z,933.93
2018-07-02T07:51:37.116Z,933.94
2018-07-02T07:52:37.225Z,933.95
2018-07-02T07:53:37.092Z,934.00
2018-07-02T07:54:37.129Z,934.07
2018-07-02T07:55:37.111Z,934.15
2018-07-02T07:56:37.124Z,934.14
2018-07-02T07:57:37.264Z,934.16
2018-07-02T07:58:37.146Z,934.09
2018-07-02T07:59:37.189Z,934.09
2018-07-02T08:00:37.181Z,934.11
2018-07-02T08:01:37.194Z,934.09
2018-07-02T08:02:37.356Z,934.12
2018-07-02T08:03:37.292Z,934.13
2018-07-02T08:04:37.234Z,934.19
2018-07-02T08:05:37.232Z,934.16
2018-07-02T08:06:37.255Z,934.12
2018-07-02T08:07:37.402Z,934.08
2018-07-02T08:08:37.296Z,934.12
2018-07-02T08:09:37.305Z,934.15
2018-07-02T08:10:37.325Z,934.12
2018-07-02T08:11:37.307Z,934.10
2018-07-02T08:12:37.466Z,934.13
2018-07-02T08:13:37.331Z,934.19
2018-07-02T08:14:37.349Z,934.18
2018-07-02T08:15:37.358Z,934.18
2018-07-02T08:16:37.376Z,934.23
2018-07-02T08:17:37.483Z,934.24
2018-07-02T08:18:37.387Z,934.19
2018-07-02T08:19:37.401Z,934.17
2018-07-02T08:20:37.437Z,934.18
2018-07-02T08:21:37.427Z,934.19
2018-07-02T08:22:37.612Z,934.23
2018-07-02T08:23:37.445Z,934.26
2018-07-02T08:24:37.486Z,934.23
2018-07-02T08:25:37.479Z,934.23
2018-07-02T08:26:37.486Z,934.28
2018-07-02T08:27:37.591Z,934.26
2018-07-02T08:28:37.502Z,934.31
2018-07-02T08:29:37.518Z,934.30
2018-07-02T08:30:37.532Z,934.26
2018-07-02T08:31:37.541Z,934.31
2018-07-02T08:32:37.683Z,934.30
2018-07-02T08:33:37.600Z,934.36
2018-07-02T08:34:37.605Z,934.36
2018-07-02T08:35:37.592Z,934.38
2018-07-02T08:36:37.629Z,934.36
2018-07-02T08:37:37.742Z,934.36
2018-07-02T08:38:37.633Z,934.38
2018-07-02T08:39:37.662Z,934.37
2018-07-02T08:40:37.645Z,934.36
2018-07-02T08:41:37.662Z,934.36
2018-07-02T08:42:37.690Z,934.32
2018-07-02T08:43:37.787Z,934.30
2018-07-02T08:44:37.701Z,934.35
2018-07-02T08:45:37.711Z,934.45
2018-07-02T08:46:37.751Z,934.46
2018-07-02T08:47:37.735Z,934.45
2018-07-02T08:48:37.920Z,934.43
2018-07-02T08:49:37.758Z,934.47
2018-07-02T08:50:37.797Z,934.50
2018-07-02T08:51:37.813Z,934.57
2018-07-02T08:52:37.812Z,934.55
2018-07-02T08:53:37.964Z,934.49
2018-07-02T08:54:37.845Z,934.55
2018-07-02T08:55:37.828Z,934.57
2018-07-02T08:56:37.866Z,934.54
2018-07-02T08:57:37.856Z,934.57
2018-07-02T08:58:38.042Z,934.65
2018-07-02T08:59:37.903Z,934.66
2018-07-02T09:00:37.901Z,934.64
2018-07-02T09:01:37.898Z,934.61
2018-07-02T09:02:37.944Z,934.62
2018-07-02T09:03:38.024Z,934.69
2018-07-02T09:04:37.933Z,934.64
2018-07-02T09:05:37.942Z,934.68
2018-07-02T09:06:37.959Z,934.70
2018-07-02T09:07:37.969Z,934.72
2018-07-02T09:08:38.083Z,934.80
2018-07-02T09:09:38.020Z,934.78
2018-07-02T09:10:38.007Z,934.76
2018-07-02T09:11:38.015Z,934.76
2018-07-02T09:12:38.052Z,934.78
2018-07-02T09:13:38.203Z,934.84
2018-07-02T09:14:38.086Z,934.86
2018-07-02T09:15:38.074Z,934.92
2018-07-02T09:16:38.117Z,934.91
2018-07-02T09:17:38.594Z,934.87
2018-07-02T09:18:38.196Z,934.89
2018-07-02T09:19:38.116Z,934.87
2018-07-02T09:20:38.146Z,934.88
2018-07-02T09:21:38.162Z,934.85
2018-07-02T09:22:38.147Z,934.79
2018-07-02T09:23:38.332Z,934.85
2018-07-02T09:24:38.182Z,934.90
2018-07-02T09:25:38.175Z,934.93
2018-07-02T09:26:38.187Z,934.95
2018-07-02T09:27:38.202Z,934.94
2018-07-02T09:28:38.360Z,935.00
2018-07-02T09:29:38.257Z,935.00
2018-07-02T09:30:38.250Z,935.04
2018-07-02T09:31:38.253Z,934.97
2018-07-02T09:32:38.332Z,934.98
2018-07-02T09:33:38.448Z,934.98
2018-07-02T09:34:38.282Z,934.98
2018-07-02T09:35:38.532Z,934.94
2018-07-02T09:36:38.308Z,934.89
2018-07-02T09:37:38.346Z,934.92
2018-07-02T09:38:38.457Z,934.97
2018-07-02T09:39:38.339Z,934.97
2018-07-02T09:40:38.385Z,935.00
2018-07-02T09:41:38.363Z,935.01
2018-07-02T09:42:38.384Z,935.02
2018-07-02T09:43:38.514Z,934.95
2018-07-02T09:44:38.413Z,934.97
2018-07-02T09:45:38.413Z,934.96
2018-07-02T09:46:38.429Z,934.98
2018-07-02T09:47:38.463Z,934.98
2018-07-02T09:48:38.615Z,934.97
2018-07-02T09:49:38.462Z,934.95
2018-07-02T09:50:38.468Z,934.93
2018-07-02T09:51:38.492Z,934.95
2018-07-02T09:52:38.494Z,934.92
2018-07-02T09:53:38.669Z,934.96
2018-07-02T09:54:38.513Z,934.93
2018-07-02T09:55:38.541Z,934.94
2018-07-02T09:56:38.566Z,934.96
2018-07-02T09:57:38.550Z,934.97
2018-07-02T09:58:38.671Z,935.00
2018-07-02T09:59:38.596Z,934.99
2018-07-02T10:00:38.635Z,935.02
2018-07-02T10:01:38.598Z,935.01
2018-07-02T10:02:38.609Z,934.94
2018-07-02T10:03:38.733Z,934.96
2018-07-02T10:04:38.667Z,934.94
2018-07-02T10:05:38.671Z,934.94
2018-07-02T10:06:38.683Z,934.94
2018-07-02T10:07:38.667Z,934.98
2018-07-02T10:08:38.674Z,934.98
2018-07-02T10:09:38.839Z,935.00
2018-07-02T10:10:38.732Z,934.98
2018-07-02T10:11:38.713Z,935.00
2018-07-02T10:12:38.779Z,935.08
2018-07-02T10:13:38.762Z,935.06
2018-07-02T10:14:38.929Z,935.13
2018-07-02T10:15:38.790Z,935.15
2018-07-02T10:16:38.798Z,935.15
2018-07-02T10:17:38.781Z,935.13
2018-07-02T10:18:38.792Z,935.12
2018-07-02T10:19:38.933Z,935.09
2018-07-02T10:20:38.819Z,935.07
2018-07-02T10:21:38.856Z,935.12
2018-07-02T10:22:38.869Z,935.14
2018-07-02T10:23:38.946Z,935.19
2018-07-02T10:24:38.966Z,935.24
2018-07-02T10:25:38.878Z,935.28
2018-07-02T10:26:38.916Z,935.31
2018-07-02T10:27:38.898Z,935.36
2018-07-02T10:28:38.915Z,935.37
2018-07-02T10:29:39.078Z,935.40
2018-07-02T10:30:38.963Z,935.38
2018-07-02T10:31:38.975Z,935.44
2018-07-02T10:32:38.984Z,935.45
2018-07-02T10:33:38.970Z,935.52
2018-07-02T10:34:39.134Z,935.50
2018-07-02T10:35:38.996Z,935.53
2018-07-02T10:36:39.006Z,935.53
2018-07-02T10:37:39.047Z,935.53
2018-07-02T10:38:39.033Z,935.53
2018-07-02T10:39:39.146Z,935.56
2018-07-02T10:40:39.078Z,935.57
2018-07-02T10:41:39.091Z,935.68
2018-07-02T10:42:39.082Z,935.73
2018-07-02T10:43:39.116Z,935.79
2018-07-02T10:44:39.252Z,935.78
2018-07-02T10:45:39.121Z,935.79
2018-07-02T10:46:39.133Z,935.80
2018-07-02T10:47:39.144Z,935.76
2018-07-02T10:48:39.155Z,935.78
2018-07-02T10:49:39.265Z,935.76
2018-07-02T10:50:39.188Z,935.73
2018-07-02T10:51:39.189Z,935.75
2018-07-02T10:52:39.234Z,935.78
2018-07-02T10:53:39.223Z,935.80
2018-07-02T10:54:39.378Z,935.81
2018-07-02T10:55:39.289Z,935.76
2018-07-02T10:56:39.250Z,935.79
2018-07-02T10:57:39.268Z,935.84
2018-07-02T10:58:39.276Z,935.91
2018-07-02T10:59:39.419Z,935.94
2018-07-02T11:00:39.306Z,935.96
2018-07-02T11:01:39.345Z,935.93
2018-07-02T11:02:39.329Z,935.99
2018-07-02T11:03:39.370Z,935.96
2018-07-02T11:04:39.534Z,935.89
2018-07-02T11:05:39.397Z,935.85
2018-07-02T11:06:39.411Z,935.87
2018-07-02T11:07:39.399Z,935.88
2018-07-02T11:08:39.418Z,935.86
2018-07-02T11:09:39.540Z,935.83
2018-07-02T11:10:39.458Z,935.83
2018-07-02T11:11:39.448Z,935.85
2018-07-02T11:12:39.466Z,935.86
2018-07-02T11:13:39.487Z,935.90
2018-07-02T11:14:39.659Z,935.96
2018-07-02T11:15:39.526Z,935.94
2018-07-02T11:16:39.537Z,936.02
2018-07-02T11:17:39.548Z,936.00
2018-07-02T11:18:39.591Z,936.02
2018-07-02T11:19:39.648Z,936.00
2018-07-02T11:20:39.585Z,935.98
2018-07-02T11:21:39.601Z,936.01
2018-07-02T11:22:39.589Z,935.99
2018-07-02T11:23:39.635Z,936.02
2018-07-02T11:24:39.640Z,936.02
2018-07-02T11:25:39.784Z,936.02
2018-07-02T11:26:39.665Z,936.04
2018-07-02T11:27:39.682Z,936.06
2018-07-02T11:28:39.690Z,936.09
2018-07-02T11:29:39.684Z,936.07
2018-07-02T11:30:39.816Z,936.08
2018-07-02T11:31:39.707Z,936.09
2018-07-02T11:32:39.747Z,936.14
2018-07-02T11:33:39.748Z,936.12
2018-07-02T11:34:39.748Z,936.17
2018-07-02T11:35:39.908Z,936.16
2018-07-02T11:36:39.799Z,936.15
2018-07-02T11:37:39.789Z,936.25
2018-07-02T11:38:39.800Z,936.24
2018-07-02T11:39:39.838Z,936.19
2018-07-02T11:40:39.980Z,936.16
2018-07-02T11:41:39.851Z,936.27
2018-07-02T11:42:39.856Z,936.30
2018-07-02T11:43:39.870Z,936.29
2018-07-02T11:44:39.884Z,936.30
2018-07-02T11:45:40.067Z,936.26
2018-07-02T11:46:39.917Z,936.24
2018-07-02T11:47:39.928Z,936.23
2018-07-02T11:48:39.972Z,936.26
2018-07-02T11:49:40.002Z,936.28
2018-07-02T11:50:40.143Z,936.30
2018-07-02T11:51:39.998Z,936.28
2018-07-02T11:52:40.007Z,936.32
2018-07-02T11:53:40.049Z,936.36
2018-07-02T11:54:40.033Z,936.33
2018-07-02T11:55:40.204Z,936.32
2018-07-02T11:56:40.067Z,936.28
2018-07-02T11:57:40.106Z,936.31
2018-07-02T11:58:40.129Z,936.35
2018-07-02T11:59:40.118Z,936.32
2018-07-02T12:00:40.304Z,936.36
2018-07-02T12:01:40.171Z,936.34
2018-07-02T12:02:40.160Z,936.37
2018-07-02T12:03:40.175Z,936.33
2018-07-02T12:04:40.191Z,936.38
2018-07-02T12:05:40.391Z,936.34
2018-07-02T12:06:40.224Z,936.43
2018-07-02T12:07:40.268Z,936.42
2018-07-02T12:08:40.253Z,936.44
2018-07-02T12:09:40.282Z,936.47
2018-07-02T12:10:40.397Z,936.47
2018-07-02T12:11:40.304Z,936.41
2018-07-02T12:12:40.351Z,936.43
2018-07-02T12:13:40.339Z,936.45
2018-07-02T12:14:40.358Z,936.47
2018-07-02T12:15:40.473Z,936.44
2018-07-02T12:16:40.392Z,936.48
2018-07-02T12:17:40.421Z,936.46
2018-07-02T12:18:40.452Z,936.50
2018-07-02T12:19:40.473Z,936.49
2018-07-02T12:20:40.558Z,936.49
2018-07-02T12:21:40.487Z,936.50
2018-07-02T12:22:40.491Z,936.52
2018-07-02T12:23:40.509Z,936.47
2018-07-02T12:24:40.531Z,936.51
2018-07-02T12:25:40.696Z,936.51
2018-07-02T12:26:40.559Z,936.49
2018-07-02T12:27:40.593Z,936.47
2018-07-02T12:28:40.596Z,936.49